createdAt,value
2023-02-13T00:00:18.474Z,59.98
2023-02-13T00:02:45.273Z,60.12
2023-02-13T00:05:11.771Z,59.99
2023-02-13T00:07:38.242Z,60.07
2023-02-13T00:10:05.257Z,60.21
2023-02-13T00:12:31.698Z,60.06
2023-02-13T00:14:59.074Z,60.33
2023-02-13T00:17:26.442Z,60.23
2023-02-13T00:19:52.782Z,60.30
2023-02-13T00:22:19.141Z,60.40
2023-02-13T00:24:46.464Z,60.33
2023-02-13T00:27:12.933Z,60.36
2023-02-13T00:29:39.458Z,60.23
2023-02-13T00:32:05.969Z,60.19
2023-02-13T00:34:32.417Z,60.06
2023-02-13T00:36:58.865Z,60.23
2023-02-13T00:39:25.295Z,60.09
2023-02-13T00:41:51.632Z,59.99
2023-02-13T00:44:18.054Z,59.96
2023-02-13T00:46:44.458Z,59.99
2023-02-13T00:49:10.877Z,60.11
2023-02-13T00:51:37.270Z,60.00
2023-02-13T00:54:03.780Z,60.00
2023-02-13T00:56:30.140Z,59.94
2023-02-13T00:58:56.473Z,60.16
2023-02-13T01:01:22.903Z,59.92
2023-02-13T01:03:49.384Z,60.02
2023-02-13T01:06:15.842Z,60.04
2023-02-13T01:08:42.627Z,59.98
2023-02-13T01:11:09.322Z,60.18
2023-02-13T01:13:36.293Z,60.18
2023-02-13T01:16:02.719Z,60.04
2023-02-13T01:18:29.460Z,60.04
2023-02-13T01:21:01.477Z,60.09
2023-02-13T01:23:37.982Z,60.01
2023-02-13T01:26:05.943Z,59.98
2023-02-13T01:28:32.716Z,59.89
2023-02-13T01:31:00.257Z,59.97
2023-02-13T01:33:28.317Z,60.06
2023-02-13T01:35:54.713Z,60.19
2023-02-13T01:38:21.582Z,60.09
2023-02-13T01:40:49.390Z,60.22
2023-02-13T01:43:15.968Z,60.15
2023-02-13T01:45:45.844Z,60.15
2023-02-13T01:48:21.122Z,60.18
2023-02-13T01:50:52.931Z,60.08
2023-02-13T01:53:27.805Z,60.09
2023-02-13T01:56:13.375Z,60.04
2023-02-13T01:58:43.155Z,60.19
2023-02-13T02:01:10.628Z,60.11
2023-02-13T02:03:59.675Z,60.02
2023-02-13T02:06:57.166Z,59.97
2023-02-13T02:09:27.546Z,60.02
2023-02-13T02:12:01.518Z,60.10
2023-02-13T02:14:28.229Z,60.36
2023-02-13T02:16:54.614Z,60.36
2023-02-13T02:19:27.367Z,60.16
2023-02-13T02:22:16.345Z,60.23
2023-02-13T02:25:00.845Z,60.31
2023-02-13T02:28:05.844Z,60.28
2023-02-13T02:31:08.578Z,60.39
2023-02-13T02:33:56.243Z,60.66
2023-02-13T02:36:46.748Z,60.36
2023-02-13T02:39:31.816Z,60.47
2023-02-13T02:42:18.507Z,60.45
2023-02-13T02:45:10.221Z,60.48
2023-02-13T02:48:19.483Z,60.46
2023-02-13T02:51:03.089Z,60.50
2023-02-13T02:53:35.313Z,60.40
2023-02-13T02:56:12.699Z,60.43
2023-02-13T02:59:06.783Z,60.32
2023-02-13T03:01:53.086Z,60.45
2023-02-13T03:04:41.318Z,60.43
2023-02-13T03:07:10.556Z,60.28
2023-02-13T03:09:59.946Z,60.25
2023-02-13T03:12:52.291Z,60.52
2023-02-13T03:15:19.201Z,60.45
2023-02-13T03:18:03.942Z,60.71
2023-02-13T03:21:12.032Z,60.67
2023-02-13T03:23:55.103Z,60.51
2023-02-13T03:26:46.084Z,60.56
2023-02-13T03:29:37.108Z,60.54
2023-02-13T03:32:26.260Z,60.58
2023-02-13T03:35:23.227Z,60.62
2023-02-13T03:37:56.013Z,60.87
2023-02-13T03:40:38.084Z,60.78
2023-02-13T03:43:14.309Z,60.56
2023-02-13T03:45:57.214Z,60.63
2023-02-13T03:48:52.203Z,60.66
2023-02-13T03:51:30.927Z,60.40
2023-02-13T03:54:01.867Z,60.75
2023-02-13T03:56:50.263Z,60.45
2023-02-13T03:59:22.453Z,60.58
2023-02-13T04:02:07.866Z,60.47
2023-02-13T04:04:49.804Z,60.43
2023-02-13T04:07:32.813Z,60.51
2023-02-13T04:10:07.221Z,60.42
2023-02-13T04:12:41.774Z,60.41
2023-02-13T04:15:27.343Z,60.64
2023-02-13T04:18:05.473Z,60.51
2023-02-13T04:20:32.716Z,60.53
2023-02-13T04:23:05.062Z,60.71
2023-02-13T04:25:31.533Z,60.53
2023-02-13T04:27:57.857Z,60.53
2023-02-13T04:30:24.345Z,60.41
2023-02-13T04:32:52.737Z,60.59
2023-02-13T04:35:19.076Z,60.48
2023-02-13T04:37:45.423Z,60.53
2023-02-13T04:40:12.057Z,60.41
2023-02-13T04:42:39.284Z,60.39
2023-02-13T04:45:05.830Z,60.66
2023-02-13T04:47:32.930Z,60.46
2023-02-13T04:49:59.309Z,60.56
2023-02-13T04:52:25.621Z,60.32
2023-02-13T04:54:51.987Z,60.57
2023-02-13T04:57:18.306Z,60.48
2023-02-13T04:59:44.669Z,60.70
2023-02-13T05:02:10.989Z,60.56
2023-02-13T05:04:37.351Z,60.51
2023-02-13T05:07:03.782Z,60.63
2023-02-13T05:09:30.118Z,60.36
2023-02-13T05:11:56.488Z,60.45
2023-02-13T05:14:22.869Z,60.43
2023-02-13T05:16:49.714Z,60.40
2023-02-13T05:19:16.891Z,60.54
2023-02-13T05:22:02.291Z,60.30
2023-02-13T05:24:28.601Z,60.25
2023-02-13T05:26:55.039Z,60.33
2023-02-13T05:29:22.946Z,60.27
2023-02-13T05:31:54.357Z,60.33
2023-02-13T05:34:22.191Z,60.45
2023-02-13T05:36:48.846Z,60.54
2023-02-13T05:39:15.346Z,60.37
2023-02-13T05:41:46.054Z,60.40
2023-02-13T05:44:13.520Z,60.63
2023-02-13T05:46:41.689Z,60.39
2023-02-13T05:49:09.905Z,60.45
2023-02-13T05:51:36.843Z,60.63
2023-02-13T05:54:03.649Z,60.61
2023-02-13T05:56:30.422Z,60.66
2023-02-13T05:58:57.478Z,60.67
2023-02-13T06:01:24.941Z,60.48
2023-02-13T06:03:51.473Z,60.35
2023-02-13T06:06:18.166Z,60.42
2023-02-13T06:08:44.609Z,60.40
2023-02-13T06:11:11.250Z,60.69
2023-02-13T06:13:40.528Z,60.67
2023-02-13T06:16:08.299Z,60.60
2023-02-13T06:18:35.372Z,60.62
2023-02-13T06:21:02.210Z,60.46
2023-02-13T06:23:29.188Z,60.59
2023-02-13T06:25:55.601Z,60.59
2023-02-13T06:28:21.996Z,60.71
2023-02-13T06:30:49.081Z,60.55
2023-02-13T06:33:15.431Z,60.69
2023-02-13T06:35:41.780Z,60.77
2023-02-13T06:38:08.131Z,60.57
2023-02-13T06:40:34.442Z,60.61
2023-02-13T06:43:00.843Z,60.44
2023-02-13T06:45:27.296Z,60.55
2023-02-13T06:47:54.144Z,60.87
2023-02-13T06:50:20.577Z,60.60
2023-02-13T06:52:51.833Z,60.72
2023-02-13T06:55:19.286Z,60.68
2023-02-13T06:57:45.769Z,60.75
2023-02-13T07:00:14.103Z,60.70
2023-02-13T07:02:42.001Z,61.01
2023-02-13T07:05:09.219Z,60.67
2023-02-13T07:07:37.364Z,60.64
2023-02-13T07:10:05.778Z,60.64
2023-02-13T07:12:36.609Z,60.55
2023-02-13T07:15:08.095Z,60.44
2023-02-13T07:17:34.598Z,60.64
2023-02-13T07:20:01.023Z,60.76
2023-02-13T07:22:27.564Z,60.63
2023-02-13T07:24:53.983Z,60.60
2023-02-13T07:27:20.330Z,60.59
2023-02-13T07:29:49.921Z,60.46
2023-02-13T07:32:16.306Z,60.53
2023-02-13T07:35:00.620Z,60.22
2023-02-13T07:37:29.490Z,60.46
2023-02-13T07:39:55.853Z,60.38
2023-02-13T07:42:22.368Z,60.54
2023-02-13T07:44:48.833Z,60.30
2023-02-13T07:47:15.344Z,60.47
2023-02-13T07:49:41.886Z,60.31
2023-02-13T07:52:08.316Z,60.22
2023-02-13T07:54:34.669Z,60.17
2023-02-13T07:57:01.078Z,60.25
2023-02-13T07:59:27.548Z,60.05
2023-02-13T08:01:54.002Z,60.03
2023-02-13T08:04:20.499Z,60.08
2023-02-13T08:06:46.844Z,60.18
2023-02-13T08:09:40.783Z,60.14
2023-02-13T08:12:09.188Z,60.06
2023-02-13T08:14:35.579Z,59.88
2023-02-13T08:17:02.129Z,59.66
2023-02-13T08:19:28.530Z,59.64
2023-02-13T08:21:55.032Z,59.80
2023-02-13T08:24:21.751Z,59.92
2023-02-13T08:26:48.207Z,59.53
2023-02-13T08:29:14.569Z,59.72
2023-02-13T08:31:41.220Z,59.85
2023-02-13T08:34:07.615Z,59.67
2023-02-13T08:36:33.934Z,59.39
2023-02-13T08:39:00.680Z,59.36
2023-02-13T08:41:27.106Z,59.49
2023-02-13T08:43:54.342Z,59.28
2023-02-13T08:46:20.940Z,59.28
2023-02-13T08:48:47.339Z,59.12
2023-02-13T08:51:14.238Z,59.14
2023-02-13T08:53:42.347Z,59.18
2023-02-13T08:56:09.600Z,59.06
2023-02-13T08:58:36.144Z,58.99
2023-02-13T09:01:07.229Z,59.10
2023-02-13T09:03:34.170Z,59.01
2023-02-13T09:06:02.215Z,59.05
2023-02-13T09:08:28.660Z,58.90
2023-02-13T09:10:58.087Z,58.66
2023-02-13T09:13:24.623Z,58.72
2023-02-13T09:15:50.977Z,58.83
2023-02-13T09:18:17.347Z,58.72
2023-02-13T09:20:43.781Z,58.68
2023-02-13T09:23:10.172Z,58.48
2023-02-13T09:25:36.754Z,58.19
2023-02-13T09:28:03.160Z,58.18
2023-02-13T09:30:29.554Z,58.19
2023-02-13T09:32:56.012Z,57.72
2023-02-13T09:35:23.183Z,58.10
2023-02-13T09:37:49.531Z,57.79
2023-02-13T09:40:25.560Z,58.04
2023-02-13T09:42:53.149Z,57.94
2023-02-13T09:45:21.943Z,57.85
2023-02-13T09:47:50.110Z,58.01
2023-02-13T09:50:23.875Z,57.62
2023-02-13T09:52:52.830Z,57.47
2023-02-13T09:55:24.644Z,57.35
2023-02-13T09:58:03.076Z,57.22
2023-02-13T10:00:50.933Z,56.80
2023-02-13T10:03:37.625Z,56.52
2023-02-13T10:06:26.029Z,56.39
2023-02-13T10:09:01.118Z,55.98
2023-02-13T10:11:38.436Z,55.90
2023-02-13T10:14:19.608Z,56.14
2023-02-13T10:17:01.306Z,55.84
2023-02-13T10:19:45.799Z,55.73
2023-02-13T10:22:16.745Z,55.76
2023-02-13T10:24:50.573Z,55.38
2023-02-13T10:27:23.878Z,55.28
2023-02-13T10:30:06.965Z,55.08
2023-02-13T10:32:45.435Z,54.74
2023-02-13T10:35:38.374Z,54.69
2023-02-13T10:38:17.624Z,54.44
2023-02-13T10:41:04.995Z,54.28
2023-02-13T10:43:59.619Z,53.88
2023-02-13T10:46:59.817Z,53.77
2023-02-13T10:50:04.011Z,53.75
2023-02-13T10:52:57.150Z,53.96
2023-02-13T10:55:23.635Z,53.24
2023-02-13T10:58:09.705Z,53.63
2023-02-13T11:00:48.906Z,53.53
2023-02-13T11:03:22.305Z,53.52
2023-02-13T11:05:49.888Z,52.92
2023-02-13T11:08:20.191Z,52.95
2023-02-13T11:10:47.103Z,52.28
2023-02-13T11:13:25.038Z,52.77
2023-02-13T11:16:01.992Z,52.71
2023-02-13T11:18:32.015Z,52.62
2023-02-13T11:21:21.917Z,52.83
2023-02-13T11:23:57.313Z,52.36
2023-02-13T11:26:36.460Z,52.29
2023-02-13T11:29:18.284Z,52.18
2023-02-13T11:31:44.752Z,51.65
2023-02-13T11:34:29.582Z,51.88
2023-02-13T11:37:14.165Z,52.05
2023-02-13T11:39:42.647Z,51.55
2023-02-13T11:42:32.354Z,51.44
2023-02-13T11:45:02.667Z,51.03
2023-02-13T11:47:42.589Z,51.15
2023-02-13T11:50:29.594Z,50.95
2023-02-13T11:52:59.955Z,50.73
2023-02-13T11:55:28.321Z,50.68
2023-02-13T11:58:03.773Z,50.83
2023-02-13T12:00:40.019Z,50.75
2023-02-13T12:03:22.475Z,50.44
2023-02-13T12:06:00.419Z,50.32
2023-02-13T12:08:27.923Z,50.20
2023-02-13T12:10:56.681Z,50.31
2023-02-13T12:13:32.771Z,50.88
2023-02-13T12:16:05.318Z,50.72
2023-02-13T12:18:39.729Z,50.60
2023-02-13T12:21:24.493Z,50.63
2023-02-13T12:24:03.069Z,50.05
2023-02-13T12:26:38.571Z,50.25
2023-02-13T12:29:29.251Z,50.27
2023-02-13T12:32:02.819Z,50.24
2023-02-13T12:34:57.938Z,50.31
2023-02-13T12:37:44.426Z,50.32
2023-02-13T12:40:28.598Z,50.20
2023-02-13T12:43:23.768Z,50.32
2023-02-13T12:46:06.559Z,50.33
2023-02-13T12:48:32.911Z,49.82
2023-02-13T12:51:24.720Z,50.30
2023-02-13T12:54:07.940Z,50.19
2023-02-13T12:56:49.744Z,50.19
2023-02-13T12:59:45.579Z,50.32
2023-02-13T13:02:57.090Z,50.64
2023-02-13T13:05:30.189Z,50.37
2023-02-13T13:08:36.832Z,50.69
2023-02-13T13:11:29.155Z,50.78
2023-02-13T13:14:00.891Z,50.66
2023-02-13T13:16:45.292Z,50.59
2023-02-13T13:19:40.462Z,50.62
2023-02-13T13:22:19.743Z,50.83
2023-02-13T13:24:48.843Z,50.81
2023-02-13T13:27:23.575Z,50.85
2023-02-13T13:29:59.176Z,50.85
2023-02-13T13:32:27.342Z,49.99
2023-02-13T13:34:54.840Z,50.25
2023-02-13T13:37:26.798Z,50.29
2023-02-13T13:40:16.359Z,50.37
2023-02-13T13:42:54.586Z,50.38
2023-02-13T13:45:35.590Z,50.49
2023-02-13T13:48:21.551Z,50.53
2023-02-13T13:50:49.014Z,50.17
2023-02-13T13:53:20.817Z,50.13
2023-02-13T13:55:47.410Z,50.21
2023-02-13T13:58:32.991Z,50.42
2023-02-13T14:01:14.650Z,50.72
2023-02-13T14:03:46.033Z,50.65
2023-02-13T14:06:49.228Z,50.87
2023-02-13T14:09:27.695Z,50.85
2023-02-13T14:11:56.485Z,50.34
2023-02-13T14:14:42.806Z,50.66
2023-02-13T14:17:14.393Z,50.38
2023-02-13T14:19:51.814Z,50.43
2023-02-13T14:22:36.145Z,50.67
2023-02-13T14:25:06.482Z,50.54
2023-02-13T14:27:38.558Z,50.56
2023-02-13T14:30:24.545Z,50.48
2023-02-13T14:32:51.295Z,50.57
2023-02-13T14:35:30.187Z,50.53
2023-02-13T14:37:59.399Z,50.62
2023-02-13T14:40:43.152Z,50.70
2023-02-13T14:43:33.782Z,50.63
2023-02-13T14:46:06.217Z,50.70
2023-02-13T14:48:39.542Z,50.50
2023-02-13T14:51:07.697Z,50.31
2023-02-13T14:54:03.621Z,50.75
2023-02-13T14:56:31.491Z,50.53
2023-02-13T14:59:32.734Z,50.65
2023-02-13T15:02:14.019Z,50.38
2023-02-13T15:04:47.588Z,50.69
2023-02-13T15:07:19.961Z,50.33
2023-02-13T15:09:56.342Z,50.55
2023-02-13T15:12:36.838Z,50.62
2023-02-13T15:15:23.532Z,50.71
2023-02-13T15:17:50.485Z,50.58
2023-02-13T15:20:24.898Z,50.93
2023-02-13T15:22:52.668Z,50.70
2023-02-13T15:25:40.201Z,50.89
2023-02-13T15:28:16.155Z,50.72
2023-02-13T15:30:52.792Z,51.21
2023-02-13T15:33:22.348Z,50.86
2023-02-13T15:36:03.733Z,51.10
2023-02-13T15:38:36.405Z,50.98
2023-02-13T15:41:05.207Z,51.01
2023-02-13T15:43:38.339Z,51.13
2023-02-13T15:46:17.310Z,51.09
2023-02-13T15:48:45.165Z,51.38
2023-02-13T15:51:19.781Z,51.58
2023-02-13T15:54:00.764Z,51.42
2023-02-13T15:56:28.016Z,51.34
2023-02-13T15:58:55.904Z,51.48
2023-02-13T16:01:23.141Z,51.44
2023-02-13T16:03:54.097Z,51.82
2023-02-13T16:06:23.574Z,51.64
2023-02-13T16:08:58.321Z,51.81
2023-02-13T16:11:31.492Z,52.03
2023-02-13T16:14:06.133Z,52.11
2023-02-13T16:17:00.719Z,52.23
2023-02-13T16:19:50.439Z,52.42
2023-02-13T16:22:38.600Z,52.44
2023-02-13T16:25:16.972Z,52.31
2023-02-13T16:27:46.875Z,52.40
2023-02-13T16:30:28.144Z,52.58
2023-02-13T16:33:14.712Z,52.87
2023-02-13T16:35:43.895Z,52.83
2023-02-13T16:38:28.419Z,52.96
2023-02-13T16:40:57.374Z,53.09
2023-02-13T16:43:42.468Z,53.12
2023-02-13T16:46:17.675Z,53.10
2023-02-13T16:48:46.209Z,53.15
2023-02-13T16:51:13.166Z,53.57
2023-02-13T16:53:40.539Z,53.61
2023-02-13T16:56:08.949Z,53.69
2023-02-13T16:58:35.689Z,53.91
2023-02-13T17:01:04.917Z,54.00
2023-02-13T17:03:34.340Z,54.12
2023-02-13T17:06:03.957Z,54.08
2023-02-13T17:08:31.788Z,54.49
2023-02-13T17:11:04.679Z,54.53
2023-02-13T17:13:31.310Z,54.97
2023-02-13T17:15:59.273Z,55.02
2023-02-13T17:18:26.936Z,55.42
2023-02-13T17:20:54.134Z,55.52
2023-02-13T17:23:23.906Z,55.52
2023-02-13T17:25:52.606Z,55.81
2023-02-13T17:28:25.033Z,55.87
2023-02-13T17:30:53.973Z,56.24
2023-02-13T17:33:25.491Z,56.28
2023-02-13T17:35:53.169Z,56.75
2023-02-13T17:38:19.619Z,56.54
2023-02-13T17:40:46.322Z,56.77
2023-02-13T17:43:14.672Z,57.00
2023-02-13T17:45:41.480Z,57.08
2023-02-13T17:48:08.410Z,57.16
2023-02-13T17:50:35.404Z,57.37
2023-02-13T17:53:04.157Z,57.12
2023-02-13T17:55:32.497Z,57.37
2023-02-13T17:57:59.913Z,57.40
2023-02-13T18:00:32.684Z,57.66
2023-02-13T18:03:00.383Z,57.84
2023-02-13T18:05:27.794Z,58.00
2023-02-13T18:07:54.501Z,58.14
2023-02-13T18:10:24.047Z,57.99
2023-02-13T18:12:51.468Z,57.89
2023-02-13T18:15:18.858Z,58.42
2023-02-13T18:17:46.179Z,58.17
2023-02-13T18:20:15.084Z,58.29
2023-02-13T18:22:41.764Z,58.17
2023-02-13T18:25:08.716Z,58.44
2023-02-13T18:27:35.234Z,58.38
2023-02-13T18:30:02.234Z,58.34
2023-02-13T18:32:28.778Z,58.34
2023-02-13T18:34:55.243Z,58.29
2023-02-13T18:37:21.634Z,58.15
2023-02-13T18:39:47.943Z,58.43
2023-02-13T18:42:14.369Z,58.44
2023-02-13T18:44:41.271Z,58.33
2023-02-13T18:47:07.924Z,58.43
2023-02-13T18:49:34.285Z,58.74
2023-02-13T18:52:01.559Z,58.41
2023-02-13T18:54:28.334Z,58.62
2023-02-13T18:56:54.665Z,58.99
2023-02-13T18:59:22.800Z,58.81
2023-02-13T19:01:49.897Z,59.01
2023-02-13T19:04:16.394Z,58.93
2023-02-13T19:06:43.786Z,58.76
2023-02-13T19:09:10.761Z,58.65
2023-02-13T19:11:38.680Z,58.69
2023-02-13T19:14:06.178Z,58.66
2023-02-13T19:16:34.662Z,58.64
2023-02-13T19:19:04.198Z,58.54
2023-02-13T19:21:32.999Z,58.61
2023-02-13T19:23:59.399Z,58.97
2023-02-13T19:26:26.996Z,58.63
2023-02-13T19:28:53.895Z,58.76
2023-02-13T19:31:23.487Z,58.86
2023-02-13T19:33:50.944Z,58.89
2023-02-13T19:36:23.114Z,58.68
2023-02-13T19:38:54.477Z,58.84
2023-02-13T19:41:21.001Z,59.04
2023-02-13T19:43:50.866Z,59.45
2023-02-13T19:46:22.928Z,59.59
2023-02-13T19:48:50.374Z,59.56
2023-02-13T19:51:19.675Z,59.52
2023-02-13T19:53:46.236Z,60.15
2023-02-13T19:56:13.569Z,60.21
2023-02-13T19:58:41.258Z,59.82
2023-02-13T20:01:09.847Z,59.72
2023-02-13T20:03:36.565Z,60.09
2023-02-13T20:06:08.138Z,59.96
2023-02-13T20:08:34.744Z,60.14
2023-02-13T20:11:01.407Z,60.47
2023-02-13T20:13:28.440Z,60.08
2023-02-13T20:15:55.224Z,60.19
2023-02-13T20:18:22.114Z,59.74
2023-02-13T20:20:48.480Z,59.94
2023-02-13T20:23:16.955Z,59.93
2023-02-13T20:25:43.345Z,59.89
2023-02-13T20:28:11.416Z,59.36
2023-02-13T20:30:42.111Z,59.56
2023-02-13T20:33:08.656Z,59.83
2023-02-13T20:35:35.168Z,60.05
2023-02-13T20:38:01.630Z,59.88
2023-02-13T20:40:27.995Z,60.00
2023-02-13T20:42:54.384Z,60.05
2023-02-13T20:45:21.048Z,59.81
2023-02-13T20:47:47.566Z,59.88
2023-02-13T20:50:14.082Z,59.91
2023-02-13T20:52:40.536Z,60.11
2023-02-13T20:55:07.626Z,60.42
2023-02-13T20:57:35.013Z,60.10
2023-02-13T21:00:01.840Z,59.90
2023-02-13T21:02:28.227Z,60.12
2023-02-13T21:04:54.596Z,59.74
2023-02-13T21:07:22.250Z,60.05
2023-02-13T21:09:48.651Z,60.21
2023-02-13T21:12:15.069Z,60.02
2023-02-13T21:14:41.456Z,60.42
2023-02-13T21:17:09.492Z,60.16
2023-02-13T21:19:36.210Z,60.26
2023-02-13T21:22:11.947Z,60.27
2023-02-13T21:24:38.934Z,59.91
2023-02-13T21:27:05.408Z,59.93
2023-02-13T21:29:31.822Z,59.62
2023-02-13T21:31:58.181Z,60.19
2023-02-13T21:34:24.639Z,59.71
2023-02-13T21:36:51.106Z,60.19
2023-02-13T21:39:17.516Z,60.00
2023-02-13T21:41:45.512Z,59.82
2023-02-13T21:44:15.830Z,59.88
2023-02-13T21:46:43.664Z,60.18
2023-02-13T21:49:16.377Z,59.59
2023-02-13T21:51:43.011Z,60.26
2023-02-13T21:54:10.188Z,60.11
2023-02-13T21:56:39.534Z,60.02
2023-02-13T21:59:06.728Z,60.21
2023-02-13T22:01:35.992Z,60.05
2023-02-13T22:04:06.060Z,59.91
2023-02-13T22:06:34.327Z,60.22
2023-02-13T22:09:05.689Z,60.42
2023-02-13T22:11:32.582Z,60.45
2023-02-13T22:14:04.380Z,60.17
2023-02-13T22:16:33.704Z,60.06
2023-02-13T22:19:01.246Z,60.57
2023-02-13T22:21:29.437Z,60.45
2023-02-13T22:23:55.940Z,60.66
2023-02-13T22:26:31.221Z,60.62
2023-02-13T22:29:06.524Z,60.74
2023-02-13T22:31:33.634Z,61.12
2023-02-13T22:34:05.016Z,60.69
2023-02-13T22:36:33.335Z,60.84
2023-02-13T22:38:59.826Z,60.59
2023-02-13T22:41:27.260Z,60.84
2023-02-13T22:43:54.431Z,60.80
2023-02-13T22:46:29.891Z,61.01
2023-02-13T22:48:56.886Z,61.16
2023-02-13T22:51:34.310Z,61.02
2023-02-13T22:54:01.699Z,60.75
2023-02-13T22:56:29.837Z,60.74
2023-02-13T22:58:57.097Z,61.22
2023-02-13T23:01:25.793Z,61.18
2023-02-13T23:03:52.406Z,61.31
2023-02-13T23:06:19.466Z,61.32
2023-02-13T23:08:48.916Z,61.10
2023-02-13T23:11:35.226Z,61.06
2023-02-13T23:14:01.650Z,61.35
2023-02-13T23:16:28.797Z,61.20
2023-02-13T23:18:57.154Z,61.34
2023-02-13T23:21:26.537Z,61.13
2023-02-13T23:23:52.922Z,61.04
2023-02-13T23:26:19.647Z,61.32
2023-02-13T23:28:45.978Z,61.38
2023-02-13T23:31:12.395Z,61.48
2023-02-13T23:33:38.885Z,61.39
2023-02-13T23:36:05.639Z,61.34
2023-02-13T23:38:32.018Z,61.60
2023-02-13T23:41:08.771Z,61.58
2023-02-13T23:43:35.296Z,62.24
2023-02-13T23:46:05.865Z,62.20
2023-02-13T23:48:33.221Z,63.03
2023-02-13T23:50:59.966Z,63.04
2023-02-13T23:53:26.666Z,63.09
2023-02-13T23:55:54.901Z,63.23
2023-02-13T23:58:21.332Z,63.56
